Martindale, Pennsylvania
Current Conditions -  °F | °C
As of 10:53 PM on Sunday 23 Nov 2014 (Local Time) from KLNS Reporting Station
Light Rain Light Rain  
Wind Chill: 46°   Ceiling: 1800
Heat Index: 48°   Visibility: 6mi
Dew Point: 44°   Wind: 5mph
Humidity: 86%   Direction: 100°E
Pressure: 29.92"   Gusts: NA
Location:  40.15°N, 76.08°W
Report Text: KLNS 240353Z AUTO 10004KT 6SM -RA BR BKN018 OVC025 09/07 A2992 RMK AO2 RAB35 SLP132 P0000 T00890067
Loading
Personal Weather Stations






























Interactive Weather Map New forecast layout! Learn more

10-Day Weather Forecast

Advertisements
Track Severe Weather on mobile